Latest METARs, TAFs and NOTAMs for MYNN


---------------------------------------------------------------------------
	(OBSERVATIONS)
MYNN 230500Z 10009KT 9999 SCT015 24/22 A3009=
MYNN 230300Z 09014KT 9999 SCT014 SCT035 BKN080 24/23 A3012 RMK
    PKWND 19KTS=
---------------------------------------------------------------------------
	(TERMINAL AREA FORECAST)
MYNN 230520Z 2306/2406 10010KT 9999 SCT015 BECMG 2313/2315 13016KT
    PROB30
    TEMPO 2318/2322 13016G26KT 7000 SHRA BKN016=
---------------------------------------------------------------------------
	(NOTAMS)


MYNN A0068/13 VOR Y RWY 14 FEEDER RTE FM MAJUR TO MUNIE NOT AVBL
    VOR Y RWY 14 FEEDER RTE FM MELON TO MUNIE NOT AVBL. SFC -
    UNL, 19 APR 19:55 2013 UNTIL PERM. CREATED: 19 APR 19:51
    2013

MYNN A0069/13 VOR Y RWY 09 FEEDER RTE FM MAJUR TO MUSSE NOT AVBL
    REMOVE PROCEDURE NOTE 'RADAR REQUIRED' FM APP CHART. SFC
    - UNL, 19 APR 19:55 2013 UNTIL PERM. CREATED: 19 APR 19:52
    2013

MYNN A0070/13 VOR Y RWY 32 FEEDER RTE FM PRUNE TO WELKS NOT AVBL
    REMOVE PROCEDURE NOTE 'RADAR REQUIRED' FM APP CHART. SFC
    - UNL, 19 APR 19:55 2013 UNTIL PERM. CREATED: 19 APR 19:54
    2013

MYNN A0158/14 SIX TEMPORARY CRANES WITH RED OBSTRUCTION LIGHTS
    ON TOP LOCATION N 25 04 14.65 W 077 23 53.63 CRANES 427FT
    AMSL 3.81 NM NE OF RWY 27 ILS RWY 14, RNAV (GNSS) RWY 09
    RNAV (GNSS) RWY 14 RNAV (GNSS) RWY 32 VOR Z RWY 09 VOR Y
    RWY 09 VOR Z RWY 14 VOR Y RWY 14 VOR Z RWY 32 VOR Y RWY 32
    SRE RWY 09 SRE RWY 14 SRE RWY 32 CIRCLING CAT C OCA 860 /
    OCH 844 VIS CAT C 4600) CORRECTION. 01 OCT 16:00 2014 UNTIL
    30 DEC 22:00 2014. CREATED: 01 OCT 15:05 2014

MYNN A0172/14 WITH THE EXCEPTION OF MYNN AND MYGF RNAV PROC IN
    THE BAHAMAS ARE NOT AUTH DUE TO AIRSPACE CLASSIFICATION RESTRICTIONS.
    31 OCT 16:00 2014 UNTIL 31 JAN 21:00 2015. CREATED: 31 OCT
    16:01 2014

MYNN A0174/14 CHECKLIST (A) SERIES YEAR=2010 0277 YEAR=2013 0068
    0069 0070 YEAR=2014 0128 0152 0153 0154 0155 0156 0157 0158
    0159 0160 0161 0162 0163 0164 0172 0173 LATEST PUBLICATIONS
    AIP AMDT 02/14 EFFECTIVE AUGUST 21, 2014 AIC 04/14. 31 OCT
    22:00 2014 UNTIL 30 NOV 22:00 2014. CREATED: 31 OCT 20:31
    2014

MYNN A0185/14 REF THE BAHAMAS AIP PAGE AD 2-46-1 SECTION MYGF
    AD 2.10.2.3 #6 MET BRIEFING OFFICE THE OPERATIONAL HOURS
    ARE MONDAY TO FRIDAY 1200UTC - 0100UTC INFORMATION WILL BE
    INCORPORATED IN THE AIP. 19 NOV 17:00 2014 UNTIL 27 FEB 20:00
    2015. CREATED: 19 NOV 16:12 2014

MYNN A0187/14 TWY JULIET(J) CLSD DUE MAINT. 21 NOV 15:30 2014
    UNTIL 24 NOV 23:59 2014. CREATED: 21 NOV 15:12 2014

MYNN A0188/14 RWY 14/32 CLSD DUE TO MAINT. NOV 24 0330-0730Z
    NOV 25 1230-1630Z, 24 NOV 03:30 2014 UNTIL 25 NOV 16:30 2014.
    CREATED: 21 NOV 17:03 2014

---------------------------------------------------------------------------